Time;durP1;ratioP1;P1;durP2;ratioP2;P2;SDS_P1;SDS_P2;PMS_P1;PMS_P2;Temp;Humidity;BMP_temperature;BMP_pressure;BME280_temperature;BME280_humidity;BME280_pressure;Samples;Min_cycle;Max_cycle;Signal;HPM_P1;HPM_P2
2022/07/02 00:01:37;;;;;;;5.90;3.55;;;14.80;99.90;;;;;;5031935;28;20128;-57
2022/07/02 00:04:04;;;;;;;6.30;3.47;;;14.70;99.90;;;;;;5033035;28;20045;-57
2022/07/02 00:06:35;;;;;;;5.97;3.50;;;14.60;99.90;;;;;;5031959;28;20385;-57
2022/07/02 00:09:03;;;;;;;7.85;3.50;;;14.60;99.90;;;;;;5032863;28;20048;-57
2022/07/02 00:11:31;;;;;;;7.80;3.45;;;14.10;99.90;;;;;;5033036;28;20056;-58
2022/07/02 00:13:58;;;;;;;5.40;3.33;;;14.70;99.90;;;;;;5033354;28;20111;-57
2022/07/02 00:16:28;;;;;;;7.45;3.33;;;14.30;99.90;;;;;;5033241;28;20041;-58
2022/07/02 00:18:54;;;;;;;7.15;3.03;;;14.60;99.90;;;;;;5033056;28;20092;-58
2022/07/02 00:21:21;;;;;;;7.63;3.33;;;14.70;99.90;;;;;;5033023;28;20056;-58
2022/07/02 00:23:46;;;;;;;6.82;3.20;;;14.60;99.90;;;;;;5032891;28;20417;-58
2022/07/02 00:26:32;;;;;;;8.90;3.25;;;14.00;99.90;;;;;;5032943;28;20050;-58
2022/07/02 00:29:31;;;;;;;10.57;3.65;;;14.30;99.90;;;;;;5033075;28;20053;-57
2022/07/02 00:31:58;;;;;;;5.45;3.08;;;14.90;99.90;;;;;;5010636;28;20048;-58
2022/07/02 00:34:25;;;;;;;6.85;3.50;;;14.40;99.90;;;;;;4994550;28;20129;-58
2022/07/02 00:36:51;;;;;;;6.45;3.13;;;14.00;99.90;;;;;;5010950;28;20096;-57
2022/07/02 00:39:17;;;;;;;5.63;3.13;;;14.00;99.90;;;;;;5010926;28;20050;-58
2022/07/02 00:41:47;;;;;;;5.97;3.15;;;14.00;99.90;;;;;;5010978;28;20433;-58
2022/07/02 00:44:14;;;;;;;5.93;3.10;;;13.50;99.90;;;;;;5010851;28;20054;-58
2022/07/02 00:46:42;;;;;;;6.95;3.20;;;14.40;99.90;;;;;;5010692;28;20104;-58
2022/07/02 00:49:09;;;;;;;5.40;3.17;;;14.20;99.90;;;;;;5010728;28;20045;-58
2022/07/02 00:51:34;;;;;;;7.47;3.10;;;14.20;99.90;;;;;;5010853;28;20125;-58
2022/07/02 00:54:02;;;;;;;11.35;3.10;;;14.00;99.90;;;;;;5010748;28;20137;-58
2022/07/02 00:56:28;;;;;;;7.90;3.10;;;14.00;99.90;;;;;;5010608;28;20181;-58
2022/07/02 00:58:53;;;;;;;9.38;3.20;;;13.70;99.90;;;;;;5010748;28;20134;-58
2022/07/02 01:01:19;;;;;;;5.78;2.97;;;;;;;;;;5042677;22;20792;-82
2022/07/02 01:03:47;;;;;;;6.15;3.05;;;13.80;99.90;;;;;;4991544;28;20051;-82
2022/07/02 01:06:17;;;;;;;7.82;3.20;;;13.70;99.90;;;;;;4986792;28;20058;-82
2022/07/02 01:11:30;;;;;;;6.10;3.30;;;13.60;99.90;;;;;;4992675;28;20058;-82
2022/07/02 01:14:06;;;;;;;4.88;2.92;;;13.60;99.90;;;;;;4975194;28;20082;-82
2022/07/02 01:16:32;;;;;;;6.45;3.10;;;;;;;;;;4996502;28;20569;-82
2022/07/02 01:19:05;;;;;;;6.10;3.15;;;13.50;99.90;;;;;;4996631;28;20116;-82
2022/07/02 01:21:31;;;;;;;10.60;3.30;;;;;;;;;;4996412;28;20054;-82
2022/07/02 01:24:40;;;;;;;6.18;3.13;;;13.50;99.90;;;;;;4994871;28;20054;-82
2022/07/02 01:27:50;;;;;;;6.32;3.00;;;13.50;99.90;;;;;;4996358;28;20137;-82
2022/07/02 01:30:19;;;;;;;5.43;3.20;;;13.40;99.90;;;;;;4995843;28;20481;-82
2022/07/02 01:33:03;;;;;;;7.65;3.17;;;;;;;;;;4994717;28;20054;-81
2022/07/02 01:35:52;;;;;;;6.18;3.20;;;13.40;99.90;;;;;;5002155;28;20078;-82
2022/07/02 01:38:18;;;;;;;4.82;3.13;;;;;;;;;;5011408;28;20042;-82
2022/07/02 01:40:44;;;;;;;6.80;3.03;;;;;;;;;;4996177;28;20074;-82
2022/07/02 01:43:13;;;;;;;6.50;3.00;;;;;;;;;;4995081;28;20137;-82
2022/07/02 01:45:45;;;;;;;7.85;3.30;;;13.30;99.90;;;;;;4995988;28;20050;-82
2022/07/02 01:48:13;;;;;;;6.55;3.60;;;;;;;;;;4995762;28;20042;-82
2022/07/02 01:50:45;;;;;;;8.90;3.42;;;13.20;99.90;;;;;;4995841;28;20050;-82
2022/07/02 01:53:14;;;;;;;9.55;3.53;;;;;;;;;;4995920;28;20410;-82
2022/07/02 01:55:42;;;;;;;6.47;3.45;;;13.30;99.90;;;;;;4995713;28;20105;-82
2022/07/02 01:58:31;;;;;;;8.07;3.50;;;13.20;99.90;;;;;;4995673;28;20050;-82
2022/07/02 02:01:17;;;;;;;7.68;4.10;;;13.20;99.90;;;;;;4953609;28;20062;-82
2022/07/02 02:04:14;;;;;;;7.70;4.40;;;13.20;99.90;;;;;;4938172;29;20059;-82
2022/07/02 02:06:48;;;;;;;9.32;4.63;;;13.30;99.90;;;;;;4900050;29;20083;-82
2022/07/02 02:09:18;;;;;;;8.48;4.78;;;;;;;;;;4937978;29;20059;-82
2022/07/02 02:11:55;;;;;;;9.80;4.50;;;13.30;99.90;;;;;;4953950;29;20051;-82
2022/07/02 02:14:44;;;;;;;10.30;5.05;;;13.30;99.90;;;;;;4954068;29;20054;-82
2022/07/02 02:17:10;;;;;;;15.00;4.85;;;;;;;;;;4953882;29;20059;-82
2022/07/02 02:19:41;;;;;;;8.82;5.00;;;13.30;99.90;;;;;;4937628;29;20061;-82
2022/07/02 02:22:07;;;;;;;14.73;4.90;;;;;;;;;;4953922;29;20487;-82
2022/07/02 02:24:41;;;;;;;12.77;4.95;;;13.20;99.90;;;;;;4953637;29;20051;-82
2022/07/02 02:27:07;;;;;;;9.43;4.60;;;;;;;;;;4936471;29;20145;-82
2022/07/02 02:29:56;;;;;;;8.95;5.22;;;13.20;99.90;;;;;;4937601;29;20134;-82
2022/07/02 02:32:24;;;;;;;8.48;4.75;;;13.20;99.90;;;;;;4947657;29;20082;-82
2022/07/02 02:35:12;;;;;;;8.32;5.40;;;13.20;99.90;;;;;;4939656;29;20059;-81
2022/07/02 02:37:44;;;;;;;10.18;5.40;;;;;;;;;;4956627;28;20058;-82
2022/07/02 02:40:13;;;;;;;8.80;5.40;;;;;;;;;;4993209;28;20117;-82
2022/07/02 02:42:45;;;;;;;7.38;5.00;;;13.20;99.90;;;;;;5001711;28;20058;-82
2022/07/02 02:45:20;;;;;;;8.70;5.40;;;13.20;99.90;;;;;;4995609;28;20054;-82
2022/07/02 02:47:46;;;;;;;8.15;5.47;;;;;;;;;;4996219;28;20050;-82
2022/07/02 02:50:17;;;;;;;12.38;5.50;;;13.10;99.90;;;;;;4994632;28;20074;-82
2022/07/02 02:52:46;;;;;;;8.23;5.40;;;;;;;;;;4998424;28;20078;-81
2022/07/02 02:55:15;;;;;;;9.23;5.18;;;13.10;99.90;;;;;;5018576;28;20081;-82
2022/07/02 02:57:44;;;;;;;13.00;5.80;;;;;;;;;;5018574;28;20086;-79
2022/07/02 03:00:10;;;;;;;8.90;5.43;;;;;;;;;;4994322;28;20537;-79
2022/07/02 03:02:42;;;;;;;9.57;5.80;;;13.10;99.90;;;;;;4993340;28;20054;-82
2022/07/02 03:05:20;;;;;;;9.13;5.68;;;13.00;99.90;;;;;;5009985;28;20108;-80
2022/07/02 03:07:54;;;;;;;10.27;5.60;;;13.10;99.90;;;;;;4995983;28;20136;-81
2022/07/02 03:10:20;;;;;;;8.90;5.32;;;;;;;;;;4998009;28;20054;-81
2022/07/02 03:13:00;;;;;;;8.13;5.00;;;13.10;99.90;;;;;;5022336;28;20461;-81
2022/07/02 03:15:30;;;;;;;8.10;5.50;;;;;;;;;;5014958;28;20046;-81
2022/07/02 03:18:19;;;;;;;9.57;5.25;;;13.00;99.90;;;;;;5013094;28;20104;-80
2022/07/02 03:20:45;;;;;;;8.85;5.72;;;;;;;;;;4999045;28;20094;-82
2022/07/02 03:23:14;;;;;;;10.10;5.60;;;13.00;99.90;;;;;;4995916;28;20050;-82
2022/07/02 03:25:57;;;;;;;9.57;5.90;;;13.00;99.90;;;;;;5009707;28;20732;-80
2022/07/02 03:28:26;;;;;;;10.38;5.78;;;;;;;;;;5010697;28;20042;-81
2022/07/02 03:30:54;;;;;;;11.52;6.10;;;13.10;99.90;;;;;;4995064;28;20086;-81
2022/07/02 03:33:23;;;;;;;7.68;5.18;;;13.10;99.90;;;;;;5009129;28;20052;-81
2022/07/02 03:35:49;;;;;;;11.52;5.90;;;;;;;;;;5009396;28;20046;-81
2022/07/02 03:38:17;;;;;;;9.23;5.80;;;13.10;99.90;;;;;;4993557;28;20058;-81
2022/07/02 03:41:02;;;;;;;11.43;6.00;;;13.10;99.90;;;;;;5009081;28;20125;-81
2022/07/02 03:43:49;;;;;;;7.95;5.35;;;;;;;;;;4991182;28;20050;-81
2022/07/02 03:46:17;;;;;;;9.02;5.63;;;;;;;;;;4991197;28;20054;-81
2022/07/02 03:49:33;;;;;;;8.80;5.53;;;13.10;99.90;;;;;;4990942;28;20097;-81
2022/07/02 03:52:08;;;;;;;11.48;5.70;;;;;;;;;;4975438;28;20134;-81
2022/07/02 03:54:40;;;;;;;9.13;5.57;;;13.10;99.90;;;;;;4975237;28;20433;-81
2022/07/02 03:57:06;;;;;;;9.88;5.43;;;;;;;;;;4974803;28;20061;-82
2022/07/02 03:59:32;;;;;;;8.15;5.60;;;;;;;;;;4990712;28;20051;-82
2022/07/02 04:01:58;;;;;;;9.30;5.45;;;;;;;;;;4990430;28;20073;-82
2022/07/02 04:04:30;;;;;;;8.40;5.30;;;13.30;99.90;;;;;;4974807;28;20062;-82
2022/07/02 04:06:56;;;;;;;9.60;5.38;;;;;;;;;;4990747;28;20091;-82
2022/07/02 04:09:25;;;;;;;8.13;5.13;;;;;;;;;;4974502;28;20050;-82
2022/07/02 04:11:54;;;;;;;9.30;5.47;;;;;;;;;;4990637;28;20101;-82
2022/07/02 04:14:30;;;;;;;11.32;5.65;;;13.70;99.90;;;;;;4974556;28;20594;-82
2022/07/02 04:17:07;;;;;;;6.47;5.32;;;13.80;99.90;;;;;;4991036;28;20416;-82
2022/07/02 04:19:33;;;;;;;13.45;5.85;;;;;;;;;;4991006;28;20064;-82
2022/07/02 04:22:08;;;;;;;8.60;5.32;;;13.90;99.90;;;;;;4992707;28;20109;-82
2022/07/02 04:24:34;;;;;;;9.27;5.67;;;;;;;;;;4993157;28;20104;-81
2022/07/02 04:27:17;;;;;;;8.30;5.40;;;;;;;;;;4993320;28;20137;-81
2022/07/02 04:29:46;;;;;;;8.77;5.40;;;;;;;;;;4992999;28;20104;-81
2022/07/02 04:32:13;;;;;;;8.10;5.55;;;;;;;;;;4992945;28;20058;-82
2022/07/02 04:34:45;;;;;;;8.77;5.28;;;;;;;;;;4992202;28;20069;-80
2022/07/02 04:37:11;;;;;;;9.10;4.97;;;;;;;;;;4993155;28;20117;-81
2022/07/02 04:39:37;;;;;;;7.30;4.65;;;;;;;;;;4992766;28;20054;-81
2022/07/02 04:42:06;;;;;;;7.38;4.75;;;18.00;99.90;;;;;;4992035;28;20496;-81
2022/07/02 04:44:38;;;;;;;11.30;4.15;;;19.10;99.90;;;;;;4993089;28;20508;-81
2022/07/02 04:47:16;;;;;;;8.35;3.97;;;20.20;99.90;;;;;;4993041;28;20105;-81
2022/07/02 04:49:45;;;;;;;7.65;4.03;;;;;;;;;;5009588;28;20458;-81
2022/07/02 04:52:21;;;;;;;8.82;3.97;;;22.30;99.90;;;;;;5011456;28;20046;-82
2022/07/02 04:54:50;;;;;;;7.15;3.85;;;23.20;99.90;;;;;;4997177;28;20485;-81
2022/07/02 04:57:22;;;;;;;8.27;4.05;;;23.60;98.80;;;;;;5012009;28;20592;-81
2022/07/02 04:59:50;;;;;;;6.40;3.60;;;24.20;99.90;;;;;;4994971;28;20050;-81
2022/07/02 05:02:19;;;;;;;6.28;3.40;;;24.90;98.00;;;;;;4978914;28;20078;-81
2022/07/02 05:04:51;;;;;;;8.95;3.70;;;25.20;88.60;;;;;;4995466;28;20437;-82
2022/07/02 05:07:20;;;;;;;9.80;3.50;;;;;;;;;;5011610;28;20505;-82
2022/07/02 05:09:46;;;;;;;10.88;3.38;;;;;;;;;;4996543;28;20046;-82
2022/07/02 05:12:27;;;;;;;6.28;3.40;;;26.60;74.00;;;;;;4996747;28;20141;-81
2022/07/02 05:15:02;;;;;;;5.05;3.20;;;26.90;71.10;;;;;;5011728;28;20695;-81
2022/07/02 05:17:49;;;;;;;5.75;3.50;;;27.20;67.40;;;;;;4977130;28;20054;-81
2022/07/02 05:20:20;;;;;;;6.80;3.67;;;27.50;65.30;;;;;;4996565;28;20050;-82
2022/07/02 05:22:46;;;;;;;7.18;3.63;;;;;;;;;;5011902;28;20046;-82
2022/07/02 05:25:14;;;;;;;7.35;3.70;;;28.00;61.30;;;;;;4995315;28;20054;-82
2022/07/02 05:27:40;;;;;;;7.28;3.88;;;;;;;;;;4995964;28;20089;-82
2022/07/02 05:30:09;;;;;;;8.18;3.78;;;27.90;67.80;;;;;;4996140;28;20386;-82
2022/07/02 05:32:38;;;;;;;6.57;3.42;;;28.30;58.30;;;;;;4996008;28;20043;-81
2022/07/02 05:35:10;;;;;;;6.63;3.65;;;28.80;65.90;;;;;;5011047;28;20587;-82
2022/07/02 05:37:38;;;;;;;9.35;3.50;;;28.80;56.40;;;;;;4996348;28;20046;-81
2022/07/02 05:40:16;;;;;;;7.40;3.60;;;27.20;55.10;;;;;;4995666;28;20055;-81
2022/07/02 05:42:57;;;;;;;7.38;3.58;;;29.40;62.40;;;;;;5010769;28;20473;-82
2022/07/02 05:45:23;;;;;;;7.25;3.50;;;;;;;;;;5010819;28;20427;-81
2022/07/02 05:47:49;;;;;;;9.80;3.50;;;;;;;;;;4996039;28;20057;-83
2022/07/02 05:50:20;;;;;;;6.95;3.20;;;30.00;52.10;;;;;;5011003;28;20058;-82
2022/07/02 05:52:56;;;;;;;6.88;3.10;;;;;;;;;;4995251;28;20054;-83
2022/07/02 05:55:25;;;;;;;8.25;3.22;;;;;;;;;;4993910;28;20105;-83
2022/07/02 05:57:54;;;;;;;9.07;3.22;;;;;;;;;;5011033;28;20137;-83
2022/07/02 06:00:20;;;;;;;6.32;3.00;;;;;;;;;;4994090;28;20114;-83
2022/07/02 06:02:46;;;;;;;7.32;2.80;;;;;;;;;;4994187;28;20050;-83
2022/07/02 06:08:10;;;;;;;5.65;2.55;;;;;;;;;;4995456;28;20450;-84
2022/07/02 06:10:44;;;;;;;6.70;2.90;;;31.90;46.20;;;;;;4995485;28;20042;-83
2022/07/02 06:13:10;;;;;;;9.13;2.85;;;;;;;;;;4995316;28;20536;-83
2022/07/02 06:15:49;;;;;;;6.40;2.65;;;32.50;52.30;;;;;;5008938;28;20492;-83
2022/07/02 06:18:57;;;;;;;6.80;2.78;;;32.40;44.50;;;;;;5010353;28;20065;-82
2022/07/02 06:21:23;;;;;;;5.53;2.85;;;;;;;;;;4980347;28;20652;-81
2022/07/02 06:23:57;;;;;;;7.07;3.00;;;32.20;44.20;;;;;;4995279;28;20050;-83
2022/07/02 06:26:33;;;;;;;4.97;2.70;;;32.00;43.80;;;;;;5003543;28;20046;-82
2022/07/02 06:29:02;;;;;;;7.30;2.97;;;32.50;44.40;;;;;;5012814;28;20548;-82
2022/07/02 06:31:31;;;;;;;8.00;2.92;;;32.20;43.70;;;;;;5013848;28;20045;-83
2022/07/02 06:33:56;;;;;;;5.70;2.55;;;;;;;;;;5011802;28;20696;-83
2022/07/02 06:36:26;;;;;;;8.68;3.10;;;;;;;;;;4996415;28;20061;-83
2022/07/02 06:38:54;;;;;;;6.95;2.63;;;32.20;42.70;;;;;;5013388;28;20054;-83
2022/07/02 06:44:17;;;;;;;5.05;2.55;;;32.00;42.30;;;;;;5013089;28;20054;-83
2022/07/02 06:46:46;;;;;;;8.10;2.90;;;31.80;49.60;;;;;;5013046;28;20057;-83
2022/07/02 06:49:24;;;;;;;7.50;2.58;;;31.90;41.80;;;;;;5011259;28;20445;-83
2022/07/02 06:51:58;;;;;;;4.93;2.53;;;32.10;49.20;;;;;;5012151;28;20456;-83
2022/07/02 06:54:36;;;;;;;6.53;2.78;;;32.00;41.80;;;;;;5014537;28;20054;-85
2022/07/02 06:57:09;;;;;;;4.63;2.40;;;31.70;49.30;;;;;;5022477;28;20061;-84
2022/07/02 06:59:41;;;;;;;7.55;2.50;;;31.60;41.90;;;;;;5017297;28;20412;-83
2022/07/02 07:02:07;;;;;;;12.68;2.42;;;;;;;;;;5032037;28;20061;-82
2022/07/02 07:04:42;;;;;;;4.65;2.30;;;31.50;42.50;;;;;;5019555;28;20062;-83
2022/07/02 07:07:11;;;;;;;3.67;2.10;;;31.40;42.50;;;;;;5012182;28;20084;-84
2022/07/02 07:09:40;;;;;;;4.13;1.80;;;;;;;;;;5012569;28;20057;-83
2022/07/02 07:12:47;;;;;;;8.07;2.10;;;30.40;43.40;;;;;;5001106;28;20046;-84
2022/07/02 07:15:21;;;;;;;7.05;2.17;;;;;;;;;;4994277;28;20054;-82
2022/07/02 07:17:50;;;;;;;5.80;1.90;;;29.60;45.00;;;;;;4992467;28;20054;-83
2022/07/02 07:20:27;;;;;;;5.10;2.10;;;29.20;46.00;;;;;;4991760;28;20046;-83
2022/07/02 07:29:48;;;;;;;4.28;1.80;;;28.30;47.50;;;;;;4938147;28;20070;-83
2022/07/02 07:32:46;;;;;;;6.90;1.60;;;28.30;47.60;;;;;;4954599;28;20760;-84
2022/07/02 07:35:34;;;;;;;4.28;1.50;;;28.40;54.50;;;;;;4919146;29;20051;-83
2022/07/02 07:38:06;;;;;;;2.85;1.40;;;27.90;48.40;;;;;;4903114;29;20065;-83
2022/07/02 07:40:32;;;;;;;3.10;1.55;;;;;;;;;;4932631;29;20051;-83
2022/07/02 07:42:58;;;;;;;5.88;1.80;;;;;;;;;;4932643;29;20058;-84
2022/07/02 07:45:34;;;;;;;;;;;;;;;;;;;;;
2022/07/02 07:48:06;;;;;;;5.20;1.77;;;27.50;48.20;;;;;;4932333;29;20127;-83
2022/07/02 07:50:38;;;;;;;4.43;1.60;;;27.50;48.40;;;;;;4931917;29;20095;-83
2022/07/02 07:53:06;;;;;;;3.72;1.40;;;27.40;55.10;;;;;;4947516;29;20559;-82
2022/07/02 07:55:32;;;;;;;4.88;1.50;;;;;;;;;;4916330;29;20056;-82
2022/07/02 08:00:57;;;;;;;5.57;1.33;;;26.70;48.50;;;;;;4928932;28;20051;-83
2022/07/02 08:03:28;;;;;;;3.38;1.52;;;;;;;;;;4932709;29;20550;-83
2022/07/02 08:05:54;;;;;;;4.28;1.70;;;;;;;;;;4901262;29;20067;-83
2022/07/02 08:08:32;;;;;;;3.40;1.75;;;26.60;49.60;;;;;;4932696;29;20094;-84
2022/07/02 08:10:58;;;;;;;5.65;1.80;;;;;;;;;;4920110;28;20051;-84
2022/07/02 08:13:33;;;;;;;4.15;1.80;;;27.20;57.60;;;;;;4992873;28;20061;-84
2022/07/02 08:16:00;;;;;;;3.80;1.35;;;;;;;;;;4992649;28;20109;-83
2022/07/02 08:18:26;;;;;;;6.78;1.50;;;;;;;;;;4993823;28;20050;-84
2022/07/02 08:20:57;;;;;;;3.90;1.48;;;26.50;56.40;;;;;;4992470;28;20054;-84
2022/07/02 08:23:23;;;;;;;5.53;1.67;;;;;;;;;;4993740;28;20085;-84
2022/07/02 08:25:50;;;;;;;2.70;1.30;;;;;;;;;;4991900;28;20500;-83
2022/07/02 08:28:17;;;;;;;3.85;1.40;;;;;;;;;;4991198;28;20050;-84
2022/07/02 08:30:43;;;;;;;6.82;1.40;;;;;;;;;;4992015;28;20054;-82
2022/07/02 08:33:09;;;;;;;4.07;1.35;;;;;;;;;;4991323;28;20062;-82
2022/07/02 08:35:38;;;;;;;3.50;1.42;;;26.60;58.10;;;;;;4992934;28;20089;-82
2022/07/02 08:38:04;;;;;;;5.88;1.60;;;;;;;;;;4991676;28;20600;-82
2022/07/02 08:40:33;;;;;;;4.32;1.67;;;26.10;52.90;;;;;;4992981;28;20055;-83
2022/07/02 08:43:00;;;;;;;4.15;1.15;;;26.20;52.00;;;;;;4991692;28;20485;-82
2022/07/02 08:45:33;;;;;;;3.80;1.60;;;26.20;51.80;;;;;;4991697;28;20050;-83
2022/07/02 08:48:03;;;;;;;3.45;1.33;;;26.20;52.00;;;;;;4975208;28;20058;-83
2022/07/02 08:50:30;;;;;;;5.78;1.25;;;;;;;;;;4992988;28;20125;-83
2022/07/02 08:52:56;;;;;;;3.08;1.38;;;;;;;;;;4991415;28;20073;-83
2022/07/02 08:55:22;;;;;;;7.35;1.58;;;;;;;;;;4991694;28;20046;-83
2022/07/02 08:57:50;;;;;;;4.57;1.30;;;25.90;51.40;;;;;;4991303;28;20054;-83
2022/07/02 09:00:17;;;;;;;4.47;1.27;;;25.90;52.00;;;;;;4992081;28;20129;-83
2022/07/02 09:02:50;;;;;;;3.90;1.48;;;25.60;58.70;;;;;;4991776;28;20054;-84
2022/07/02 09:05:17;;;;;;;3.97;1.60;;;25.60;52.50;;;;;;4991396;28;20137;-83
2022/07/02 09:07:47;;;;;;;6.68;1.70;;;25.50;52.80;;;;;;4975003;28;20058;-83
2022/07/02 09:10:13;;;;;;;5.60;1.40;;;;;;;;;;4992751;28;20452;-83
2022/07/02 09:12:40;;;;;;;3.95;1.40;;;25.60;53.00;;;;;;4991476;28;20054;-83
2022/07/02 09:15:06;;;;;;;3.72;1.40;;;;;;;;;;4991198;28;20435;-83
2022/07/02 09:17:35;;;;;;;9.43;1.48;;;25.60;53.60;;;;;;4975049;28;20058;-83
2022/07/02 09:20:01;;;;;;;6.00;1.55;;;;;;;;;;4975179;28;20094;-82
2022/07/02 09:22:35;;;;;;;4.20;1.40;;;25.50;52.80;;;;;;4975242;28;20120;-83
2022/07/02 09:25:16;;;;;;;3.20;1.40;;;25.70;53.90;;;;;;4991636;28;20054;-83
2022/07/02 09:27:43;;;;;;;4.65;1.20;;;25.40;53.40;;;;;;4992779;28;20485;-83
2022/07/02 09:30:11;;;;;;;3.92;1.40;;;25.40;53.40;;;;;;4991347;28;20046;-83
2022/07/02 09:32:46;;;;;;;5.35;1.40;;;25.30;53.20;;;;;;4991293;28;20055;-83
2022/07/02 09:35:19;;;;;;;8.23;1.60;;;25.20;57.20;;;;;;5012674;28;20412;-83
2022/07/02 09:37:46;;;;;;;4.18;1.40;;;25.20;54.00;;;;;;5014431;28;20060;-83
2022/07/02 09:40:12;;;;;;;5.10;1.60;;;25.10;54.70;;;;;;5013827;28;20058;-82
2022/07/02 09:42:40;;;;;;;2.97;1.48;;;;;;;;;;5015447;28;20053;-83
2022/07/02 09:45:10;;;;;;;3.72;1.40;;;25.10;54.10;;;;;;4997661;28;20452;-83
2022/07/02 09:47:36;;;;;;;4.22;1.50;;;25.20;54.40;;;;;;5015900;28;20050;-84
2022/07/02 09:50:09;;;;;;;4.57;1.52;;;25.20;54.70;;;;;;5004888;28;20469;-83
2022/07/02 09:52:36;;;;;;;5.60;1.88;;;;;;;;;;5000284;28;20060;-84
2022/07/02 09:55:03;;;;;;;3.45;1.60;;;25.10;55.40;;;;;;4997476;28;20056;-83
2022/07/02 09:57:29;;;;;;;4.30;1.55;;;;;;;;;;5033081;28;20049;-84
2022/07/02 10:00:06;;;;;;;6.60;1.58;;;25.10;55.00;;;;;;5033808;28;20049;-83
2022/07/02 10:02:32;;;;;;;4.43;1.40;;;;;;;;;;5014559;28;20583;-83
2022/07/02 10:05:04;;;;;;;5.70;1.60;;;25.60;61.10;;;;;;5012763;28;20064;-83
2022/07/02 10:07:30;;;;;;;4.28;1.60;;;;;;;;;;5013287;28;20141;-84
2022/07/02 10:10:03;;;;;;;5.80;1.48;;;25.40;59.80;;;;;;4996799;28;20116;-84
2022/07/02 10:12:29;;;;;;;6.05;1.40;;;;;;;;;;5012900;28;20065;-84
2022/07/02 10:14:55;;;;;;;6.75;1.20;;;;;;;;;;5013015;28;20385;-84
2022/07/02 10:17:21;;;;;;;4.15;1.60;;;;;;;;;;5012639;28;20148;-84
2022/07/02 10:19:48;;;;;;;3.83;1.40;;;;;;;;;;5012583;28;20133;-83
2022/07/02 10:22:15;;;;;;;4.00;1.38;;;25.40;53.60;;;;;;5014304;28;20081;-83
2022/07/02 10:24:41;;;;;;;4.93;1.73;;;;;;;;;;5013876;28;20049;-83
2022/07/02 10:27:08;;;;;;;3.30;1.35;;;;;;;;;;4996203;28;20108;-83
2022/07/02 10:29:34;;;;;;;2.63;1.33;;;;;;;;;;5013384;28;20359;-82
2022/07/02 10:32:23;;;;;;;5.85;1.60;;;25.50;53.10;;;;;;5012936;28;20562;-83
2022/07/02 10:35:10;;;;;;;6.00;1.40;;;25.50;53.40;;;;;;5013155;28;20053;-83
2022/07/02 10:37:40;;;;;;;3.75;1.50;;;25.60;53.30;;;;;;4996462;28;20058;-83
2022/07/02 10:40:06;;;;;;;4.45;1.50;;;25.70;57.80;;;;;;5016668;28;20046;-83
2022/07/02 10:42:44;;;;;;;4.07;1.42;;;26.10;61.40;;;;;;5010615;28;20053;-83
2022/07/02 10:45:10;;;;;;;4.82;1.80;;;;;;;;;;5036547;28;20046;-83
2022/07/02 10:47:36;;;;;;;5.70;1.80;;;;;;;;;;5032699;28;20054;-83
2022/07/02 10:50:02;;;;;;;4.75;1.42;;;25.60;60.40;;;;;;5007000;28;20131;-84
2022/07/02 10:53:09;;;;;;;4.05;1.60;;;25.20;59.90;;;;;;4997493;28;20084;-83
2022/07/02 10:55:35;;;;;;;6.50;1.80;;;;;;;;;;4992591;28;20129;-84
2022/07/02 10:58:05;;;;;;;5.47;1.70;;;25.50;54.70;;;;;;4992334;28;20485;-84
2022/07/02 11:00:40;;;;;;;4.50;1.70;;;25.50;55.20;;;;;;4975846;28;20050;-84
2022/07/02 11:03:16;;;;;;;2.97;1.40;;;25.40;54.90;;;;;;4976181;28;20449;-84
2022/07/02 11:06:05;;;;;;;3.63;1.58;;;25.60;56.20;;;;;;4960247;28;20050;-84
2022/07/02 11:08:39;;;;;;;5.97;1.80;;;25.80;60.90;;;;;;4992709;28;20402;-84
2022/07/02 11:11:10;;;;;;;3.97;1.70;;;25.90;61.30;;;;;;4994615;28;20051;-83
2022/07/02 11:13:50;;;;;;;5.60;1.70;;;25.70;56.00;;;;;;4999089;28;20144;-83
2022/07/02 11:16:23;;;;;;;6.57;1.60;;;25.70;57.40;;;;;;4977866;28;20128;-83
2022/07/02 11:18:51;;;;;;;3.70;1.67;;;;;;;;;;4992049;28;20057;-83
2022/07/02 11:21:18;;;;;;;8.13;1.60;;;25.60;55.10;;;;;;4959460;28;20062;-83
2022/07/02 11:23:48;;;;;;;5.28;1.60;;;;;;;;;;4975753;28;20062;-83
2022/07/02 11:26:22;;;;;;;4.07;1.50;;;25.60;55.40;;;;;;4991692;28;20057;-83
2022/07/02 11:28:52;;;;;;;3.78;1.48;;;25.60;62.00;;;;;;4975484;28;20058;-83
2022/07/02 11:31:19;;;;;;;3.58;1.60;;;25.70;54.70;;;;;;4996711;28;20111;-84
2022/07/02 11:33:51;;;;;;;6.32;1.50;;;25.60;54.40;;;;;;5012632;28;20501;-84
2022/07/02 11:36:19;;;;;;;3.92;1.55;;;;;;;;;;5012249;28;20093;-83
2022/07/02 11:38:51;;;;;;;7.30;1.80;;;25.70;59.50;;;;;;4995753;28;20050;-83
2022/07/02 11:41:29;;;;;;;5.25;1.90;;;25.90;59.60;;;;;;5017198;28;20475;-84
2022/07/02 11:43:59;;;;;;;4.35;1.70;;;26.50;57.30;;;;;;5011707;28;20053;-83
2022/07/02 11:46:29;;;;;;;4.22;1.60;;;26.10;55.90;;;;;;5013089;28;20600;-83
2022/07/02 11:48:58;;;;;;;3.40;1.40;;;26.40;52.70;;;;;;5011565;28;20050;-83
2022/07/02 11:51:24;;;;;;;4.20;1.55;;;;;;;;;;5011957;28;20104;-84
2022/07/02 11:54:07;;;;;;;2.78;1.30;;;26.60;58.90;;;;;;5013452;28;20077;-83
2022/07/02 11:56:50;;;;;;;4.97;1.50;;;26.30;52.60;;;;;;5012011;28;20077;-83
2022/07/02 11:59:36;;;;;;;5.45;1.50;;;26.30;53.70;;;;;;5013238;28;20058;-83
2022/07/02 12:02:04;;;;;;;3.88;1.50;;;25.80;61.80;;;;;;5011080;28;20042;-83
2022/07/02 12:04:33;;;;;;;3.45;1.35;;;26.70;56.80;;;;;;4995502;28;20104;-83
2022/07/02 12:09:53;;;;;;;4.13;1.38;;;28.30;52.80;;;;;;5009943;28;20492;-83
2022/07/02 12:12:26;;;;;;;4.13;1.33;;;27.40;56.90;;;;;;5012358;28;20057;-83
2022/07/02 12:14:52;;;;;;;4.47;1.60;;;;;;;;;;5014960;28;20468;-83
2022/07/02 12:17:18;;;;;;;6.43;1.25;;;;;;;;;;4996583;28;20428;-82
2022/07/02 12:19:44;;;;;;;2.53;1.40;;;;;;;;;;5012298;28;20054;-83
2022/07/02 12:22:10;;;;;;;3.60;1.48;;;;;;;;;;5011531;28;20050;-83
2022/07/02 12:24:36;;;;;;;8.57;1.88;;;;;;;;;;4995784;28;20038;-83
2022/07/02 12:27:08;;;;;;;4.07;1.50;;;26.40;53.00;;;;;;5013586;28;20057;-83
2022/07/02 12:29:58;;;;;;;3.53;1.63;;;26.80;57.40;;;;;;5011737;28;20064;-83
2022/07/02 12:32:32;;;;;;;5.00;1.80;;;26.40;54.80;;;;;;4995646;28;20523;-82
2022/07/02 12:35:00;;;;;;;4.13;1.60;;;26.70;52.60;;;;;;5013369;28;20053;-84
2022/07/02 12:37:34;;;;;;;4.78;1.58;;;28.70;55.60;;;;;;4995986;28;20125;-83
2022/07/02 12:40:22;;;;;;;4.93;1.30;;;26.70;53.20;;;;;;5013378;28;20058;-83
2022/07/02 12:42:52;;;;;;;4.35;1.50;;;26.80;52.70;;;;;;5012182;28;20477;-84
2022/07/02 12:45:40;;;;;;;8.73;1.65;;;27.00;57.30;;;;;;5012894;28;20504;-83
2022/07/02 12:48:26;;;;;;;4.60;1.45;;;26.80;52.10;;;;;;4995159;28;20057;-84
2022/07/02 12:50:53;;;;;;;5.25;1.55;;;26.70;56.30;;;;;;4992532;28;20123;-83
2022/07/02 12:53:22;;;;;;;7.53;1.60;;;27.00;59.00;;;;;;5011489;28;20100;-82
2022/07/02 12:56:00;;;;;;;2.20;1.50;;;26.70;51.60;;;;;;5011402;28;20046;-83
2022/07/02 12:58:45;;;;;;;6.65;1.90;;;26.70;52.00;;;;;;5011351;28;20124;-83
2022/07/02 13:01:14;;;;;;;5.55;1.38;;;;;;;;;;5011710;28;20128;-83
2022/07/02 13:03:40;;;;;;;3.85;1.60;;;;;;;;;;5011590;28;20093;-82
2022/07/02 13:06:09;;;;;;;11.93;1.95;;;26.50;52.70;;;;;;4995716;28;20042;-83
2022/07/02 13:08:37;;;;;;;2.97;1.30;;;26.40;56.10;;;;;;5012433;28;20050;-83
2022/07/02 13:11:04;;;;;;;2.17;1.33;;;;;;;;;;4998195;28;20046;-83
2022/07/02 13:13:30;;;;;;;2.97;1.17;;;;;;;;;;5015910;28;20204;-83
2022/07/02 13:15:56;;;;;;;2.95;1.40;;;;;;;;;;5016453;28;20054;-83
2022/07/02 13:18:22;;;;;;;3.45;1.35;;;;;;;;;;5015901;28;20505;-83
2022/07/02 13:20:49;;;;;;;4.57;1.60;;;;;;;;;;5016108;28;20050;-83
2022/07/02 13:23:14;;;;;;;3.83;1.40;;;26.50;53.80;;;;;;5014497;28;20485;-83
2022/07/02 13:25:40;;;;;;;6.55;1.70;;;;;;;;;;5014357;28;20085;-83
2022/07/02 13:28:06;;;;;;;3.30;1.40;;;;;;;;;;5015951;28;20049;-83
2022/07/02 13:30:35;;;;;;;2.53;1.17;;;26.90;51.60;;;;;;5014265;28;20079;-83
2022/07/02 13:33:01;;;;;;;7.70;1.70;;;;;;;;;;5016019;28;20053;-83
2022/07/02 13:35:28;;;;;;;4.85;1.20;;;;;;;;;;4999456;28;20049;-83
2022/07/02 13:37:54;;;;;;;3.85;1.30;;;;;;;;;;5014461;28;20050;-83
2022/07/02 13:40:23;;;;;;;2.60;1.35;;;26.80;51.20;;;;;;5014136;28;20068;-84
2022/07/02 13:42:49;;;;;;;1.95;1.00;;;;;;;;;;5014302;28;20057;-83
2022/07/02 13:45:15;;;;;;;3.78;1.27;;;;;;;;;;5015744;28;20046;-83
2022/07/02 13:47:41;;;;;;;3.83;1.50;;;27.00;51.60;;;;;;5015447;28;20170;-83
2022/07/02 13:50:07;;;;;;;4.03;1.45;;;26.90;56.80;;;;;;5015321;28;20140;-83
2022/07/02 13:52:33;;;;;;;5.03;1.58;;;27.20;56.50;;;;;;5014029;28;20046;-83
2022/07/02 13:54:59;;;;;;;6.40;2.00;;;;;;;;;;5019917;28;20073;-83
2022/07/02 13:57:25;;;;;;;4.47;1.58;;;27.10;52.50;;;;;;5000522;28;20415;-83
2022/07/02 13:59:51;;;;;;;3.08;1.30;;;;;;;;;;5013564;28;20066;-83
2022/07/02 14:02:17;;;;;;;4.22;1.40;;;;;;;;;;5013182;28;20049;-83
2022/07/02 14:04:43;;;;;;;5.75;1.40;;;;;;;;;;5015282;28;20093;-83
2022/07/02 14:07:10;;;;;;;4.63;1.50;;;27.20;52.00;;;;;;4998184;28;20123;-83
2022/07/02 14:09:36;;;;;;;3.38;1.30;;;;;;;;;;5015220;28;20054;-82
2022/07/02 14:12:06;;;;;;;5.00;1.30;;;27.70;50.00;;;;;;5015275;28;20085;-83